• Join FlightAware (Why Join?)
  • Login
  • US Flag 
09:01PM EDT


 

Airport Tracker/Info


-or-


 

Live Flight TrackerFlight Track Log ✈ N53NW ✈ 13-May-2013 ✈ KTYQ - KAGC

Flight Track Log - Related Links

Times and Time Zones

All times are in EDT time to prevent confusion due to time zone crossing. See the N53NW flight status page for this flight to view local times or setup timezone preferences in your user account.

Time Position Orientation Groundspeed Altitude Reporting Facility
EDT Latitude Longitude Course Direction KTS MPH feet Rate Location/Type
03:31PM 40.0500 -86.2500 27° Northeast 168 193 1,500  Level Indianapolis TRACON
03:33PM 40.1000 -86.2167 27° Northeast 229 264 4,800 2,700 Climbing Indianapolis TRACON
03:34PM 40.0833 -86.1167 102° East 255 293 8,300 2,940 Climbing Indianapolis TRACON
03:35PM 40.0569 -86.0117 108° East 267 307 11,500 2,640 Climbing Indianapolis Center
03:36PM 40.0308 -85.8953 106° East 327 376 13,800 2,460 Climbing Indianapolis Center
03:37PM 40.0022 -85.7708 107° East 353 406 16,700 2,580 Climbing Indianapolis Center
03:38PM 39.9972 -85.6411 93° East 362 417 19,200 2,460 Climbing Indianapolis Center
03:39PM 40.0069 -85.5133 84° East 357 411 21,800 2,220 Climbing Indianapolis Center
03:40PM 40.0158 -85.3822 85° East 364 419 23,900 1,560 Climbing Indianapolis Center
03:41PM 40.0253 -85.2475 85° East 372 428 25,000 1,080 Climbing Indianapolis Center
03:42PM 40.0369 -85.0819 85° East 382 440 26,200 1,500 Climbing Indianapolis Center
03:43PM 40.0458 -84.9461 85° East 379 436 28,200 1,320 Climbing Indianapolis Center
03:44PM 40.0550 -84.8150 85° East 378 435 29,000 360 Climbing Indianapolis Center
03:45PM 40.0647 -84.6728 85° East 388 447 29,000  Level Indianapolis Center
03:46PM 40.0731 -84.5300 86° East 391 450 29,000  Level Indianapolis Center
03:47PM 40.0844 -84.3625 85° East 393 452 29,000  Level Indianapolis Center
03:48PM 40.0939 -84.2200 85° East 391 450 29,000  Level Indianapolis Center
03:49PM 40.1014 -84.0775 86° East 389 448 29,000  Level Indianapolis Center
03:50PM 40.1097 -83.9350 86° East 389 448 29,000  Level Indianapolis Center
03:51PM 40.1183 -83.7936 85° East 386 444 29,000  Level Indianapolis Center
03:52PM 40.1258 -83.6536 86° East 381 438 29,000 -60 Level Indianapolis Center
03:53PM 40.1344 -83.5128 85° East 382 440 28,900  Descending Indianapolis Center
03:54PM 40.1419 -83.3725 86° East 381 438 29,000  Climbing Indianapolis Center
03:55PM 40.1497 -83.2303 86° East 385 443 29,000 -660 Level Indianapolis Center
03:56PM 40.1569 -83.0894 86° East 384 442 27,700 -1,380 Descending Indianapolis Center
03:57PM 40.1642 -82.9461 86° East 389 448 26,200 -1,560 Descending Indianapolis Center
03:58PM 40.1725 -82.7789 86° East 391 450 24,600 -1,500 Descending Indianapolis Center
04:00PM 40.1792 -82.6381 86° East 388 447 23,200 -780 Descending Indianapolis Center
04:01PM 40.1864 -82.5011 86° East 376 433 23,000 -120 Descending Indianapolis Center
04:02PM 40.1922 -82.3642 87° East 375 432 23,000 -540 Level Indianapolis Center
04:03PM 40.1986 -82.2294 86° East 369 425 21,900 -1,260 Descending Indianapolis Center
04:04PM 40.2044 -82.0922 87° East 373 429 20,500 -1,380 Descending Indianapolis Center
04:05PM 40.2106 -81.9556 87° East 374 430 19,100 -780 Descending Indianapolis Center
04:06PM 40.2167 -81.8222 87° East 366 421 19,000 -60 Descending Indianapolis Center
04:07PM 40.2214 -81.6903 87° East 353 406 19,000  Level Indianapolis Center
04:08PM 40.2275 -81.5728 86° East 346 398 19,000  Level Cleveland Center
04:09PM 40.2222 -81.4506 93° East 346 398 19,000 -600 Level Cleveland Center
04:10PM 40.2086 -81.3225 98° East 346 398 17,900 -1,200 Descending Cleveland Center
04:11PM 40.1947 -81.1972 98° East 352 405 16,600 -1,440 Descending Cleveland Center
04:12PM 40.1786 -81.0775 100° East 346 398 15,100 -1,500 Descending Cleveland Center
04:13PM 40.1667 -80.9606 98° East 339 390 13,600 -1,500 Descending Cleveland Center
04:14PM 40.1522 -80.8467 99° East 328 377 12,100 -2,100 Descending Cleveland Center
04:15PM 40.1858 -80.7489 66° East 298 343 9,500 -2,760 Descending Cleveland Center
04:16PM 40.2111 -80.6511 71° East 285 328 6,600 -2,280 Descending Cleveland Center
04:17PM 40.2319 -80.5642 73° East 266 306 5,000 -840 Descending Cleveland Center
04:18PM 40.2464 -80.4825 77° East 247 284 5,000 -480 Level Cleveland Center
04:19PM 40.2631 -80.4008 75° East 232 267 4,100 -1,020 Descending Cleveland Center
04:20PM 40.2794 -80.3244 74° East 221 254 3,000 -600 Descending Cleveland Center
04:21PM 40.2939 -80.2483 76° East 216 249 3,000  Level Cleveland Center
04:22PM 40.3125 -80.1692 73° East 211 243 3,000  Level Cleveland Center
04:24PM 40.4500 -80.1191 90° East  Level FlightAware Approximate
04:31PM 40.3544 -79.9302 123° Southeast  Level Estimated
04:32PM 40.3544 -79.9302 123° Southeast  Level Estimated
04:33PM 40.3544 -79.9302 123° Southeast  Level Estimated
04:34PM 40.3544 -79.9302 123° Southeast  Level Estimated